METAR

TAF

 




Rio de Janeiro / Galeão - Antonio Carlos Jobim, RJ - SBGL


23 de Setembro de 2014 às 20:00 (UTC)


Tempo:

Céu sem restrições operacionais para aviação

Temperatura:

24ºC

Umidade Relativa:

57%

Localização:
Ajuste do Altímetro:

1017 hPa

Visibilidade Horizontal Predominante:

Igual ou acima de 10 Km

Direção e Velocidade do Vento:

140° 22,22 Km/h


Observação Meteorológica:

METAR SBGL 232000Z 14012KT CAVOK 24/15 Q1017=